createdAt,value
2023-03-11T00:05:01.645Z,62.63
2023-03-11T00:10:04.221Z,63.00
2023-03-11T00:15:06.280Z,63.07
2023-03-11T00:20:14.394Z,62.91
2023-03-11T00:25:16.032Z,63.03
2023-03-11T00:30:19.650Z,63.13
2023-03-11T00:35:30.917Z,63.03
2023-03-11T00:40:35.741Z,62.56
2023-03-11T00:45:37.780Z,62.91
2023-03-11T00:50:40.223Z,62.52
2023-03-11T00:55:42.005Z,62.48
2023-03-11T01:00:43.749Z,62.21
2023-03-11T01:05:45.465Z,62.14
2023-03-11T01:10:47.088Z,62.40
2023-03-11T01:15:48.995Z,62.11
2023-03-11T01:20:50.914Z,61.97
2023-03-11T01:25:52.598Z,61.57
2023-03-11T01:30:54.274Z,61.10
2023-03-11T01:35:56.036Z,60.90
2023-03-11T01:40:57.804Z,60.79
2023-03-11T01:46:02.281Z,60.85
2023-03-11T01:51:04.294Z,60.76
2023-03-11T01:56:06.666Z,60.53
2023-03-11T02:01:08.440Z,60.66
2023-03-11T02:06:14.196Z,60.39
2023-03-11T02:11:20.722Z,59.96
2023-03-11T02:16:22.624Z,59.86
2023-03-11T02:21:32.869Z,59.91
2023-03-11T02:27:05.568Z,60.39
2023-03-11T02:32:09.394Z,60.75
2023-03-11T02:37:13.755Z,61.01
2023-03-11T02:42:26.410Z,60.34
2023-03-11T02:47:28.379Z,60.14
2023-03-11T02:52:33.574Z,59.74
2023-03-11T02:57:35.230Z,59.90
2023-03-11T03:02:37.431Z,59.66
2023-03-11T03:07:40.332Z,59.23
2023-03-11T03:12:42.664Z,59.58
2023-03-11T03:17:45.076Z,59.78
2023-03-11T03:22:47.409Z,59.47
2023-03-11T03:27:51.141Z,59.56
2023-03-11T03:32:53.464Z,59.47
2023-03-11T03:37:56.002Z,59.43
2023-03-11T03:42:58.325Z,59.35
2023-03-11T03:48:00.598Z,59.54
2023-03-11T03:53:02.876Z,59.76
2023-03-11T03:58:05.160Z,59.17
2023-03-11T04:03:07.809Z,59.54
2023-03-11T04:08:10.145Z,59.96
2023-03-11T04:13:12.418Z,59.59
2023-03-11T04:18:14.742Z,59.37
2023-03-11T04:23:17.258Z,59.30
2023-03-11T04:28:20.296Z,59.16
2023-03-11T04:33:22.829Z,59.50
2023-03-11T04:38:25.767Z,59.47
2023-03-11T04:43:28.110Z,59.38
2023-03-11T04:48:30.400Z,59.47
2023-03-11T04:53:32.761Z,59.45
2023-03-11T04:58:35.081Z,59.43
2023-03-11T05:03:37.389Z,59.30
2023-03-11T05:08:39.744Z,59.58
2023-03-11T05:13:42.110Z,59.54
2023-03-11T05:18:44.461Z,59.54
2023-03-11T05:23:46.758Z,60.13
2023-03-11T05:28:49.000Z,59.66
2023-03-11T05:33:50.686Z,60.03
2023-03-11T05:38:53.344Z,59.66
2023-03-11T05:43:54.962Z,59.78
2023-03-11T05:48:56.815Z,59.57
2023-03-11T05:53:58.781Z,59.62
2023-03-11T05:59:00.380Z,59.67
2023-03-11T06:04:02.246Z,59.10
2023-03-11T06:09:04.167Z,59.35
2023-03-11T06:14:05.779Z,58.98
2023-03-11T06:19:07.418Z,59.37
2023-03-11T06:24:09.080Z,59.03
2023-03-11T06:29:14.980Z,58.87
2023-03-11T06:34:16.581Z,59.23
2023-03-11T06:39:18.275Z,58.65
2023-03-11T06:44:20.046Z,58.47
2023-03-11T06:49:21.663Z,58.88
2023-03-11T06:54:23.267Z,58.48
2023-03-11T06:59:25.154Z,57.92
2023-03-11T07:04:26.867Z,57.87
2023-03-11T07:09:29.531Z,57.59
2023-03-11T07:14:31.208Z,57.42
2023-03-11T07:19:32.874Z,56.93
2023-03-11T07:24:34.478Z,55.81
2023-03-11T07:29:36.144Z,55.14
2023-03-11T07:34:37.894Z,54.96
2023-03-11T07:39:39.630Z,54.32
2023-03-11T07:44:41.236Z,54.91
2023-03-11T07:49:42.865Z,55.12
2023-03-11T07:54:45.399Z,54.72
2023-03-11T07:59:47.014Z,53.90
2023-03-11T08:04:48.611Z,54.11
2023-03-11T08:09:50.320Z,53.56
2023-03-11T08:14:51.992Z,53.45
2023-03-11T08:19:53.676Z,52.95
2023-03-11T08:24:56.636Z,52.82
2023-03-11T08:30:00.263Z,52.34
2023-03-11T08:35:01.951Z,52.04
2023-03-11T08:40:04.253Z,51.00
2023-03-11T08:45:06.572Z,50.41
2023-03-11T08:50:13.932Z,48.95
2023-03-11T08:55:18.661Z,48.00
2023-03-11T09:00:20.724Z,48.34
2023-03-11T09:05:22.339Z,47.61
2023-03-11T09:10:25.042Z,46.56
2023-03-11T09:15:27.896Z,45.81
2023-03-11T09:20:29.611Z,46.78
2023-03-11T09:25:32.241Z,45.66
2023-03-11T09:30:34.815Z,44.80
2023-03-11T09:35:39.347Z,44.20
2023-03-11T09:41:19.241Z,41.89
2023-03-11T09:46:30.856Z,45.43
2023-03-11T09:51:43.335Z,42.75
2023-03-11T09:56:45.374Z,43.83
2023-03-11T10:01:50.533Z,43.84
2023-03-11T10:06:53.154Z,43.83
2023-03-11T10:12:16.033Z,43.87
2023-03-11T10:17:55.184Z,42.27
2023-03-11T10:23:08.607Z,42.49
2023-03-11T10:28:17.545Z,43.05
2023-03-11T10:33:27.176Z,42.14
2023-03-11T10:38:46.646Z,40.21
2023-03-11T10:44:13.948Z,39.17
2023-03-11T10:49:17.571Z,40.70
2023-03-11T10:54:46.453Z,38.65
2023-03-11T10:59:51.879Z,39.70
2023-03-11T11:05:29.316Z,37.54
2023-03-11T11:10:32.488Z,38.12
2023-03-11T11:15:42.659Z,38.21
2023-03-11T11:21:37.347Z,37.99
2023-03-11T11:26:38.997Z,37.17
2023-03-11T11:31:43.536Z,37.52
2023-03-11T11:36:45.928Z,36.91
2023-03-11T11:41:50.058Z,36.66
2023-03-11T11:46:59.757Z,36.29
2023-03-11T11:52:19.501Z,34.99
2023-03-11T11:57:23.757Z,35.90
2023-03-11T12:02:43.499Z,34.40
2023-03-11T12:08:07.398Z,32.64
2023-03-11T12:13:46.606Z,34.81
2023-03-11T12:19:01.535Z,33.72
2023-03-11T12:24:03.074Z,36.30
2023-03-11T12:29:26.710Z,34.36
2023-03-11T12:34:30.989Z,35.06
2023-03-11T12:39:34.392Z,35.98
2023-03-11T12:44:40.741Z,36.46
2023-03-11T12:49:45.348Z,36.31
2023-03-11T12:54:50.257Z,35.87
2023-03-11T13:00:23.312Z,36.85
2023-03-11T13:05:56.018Z,34.44
2023-03-11T13:10:58.861Z,36.10
2023-03-11T13:16:12.613Z,34.12
2023-03-11T13:21:32.390Z,34.68
2023-03-11T13:26:42.975Z,35.55
2023-03-11T13:31:56.613Z,35.21
2023-03-11T13:37:20.504Z,35.07
2023-03-11T13:42:42.646Z,34.64
2023-03-11T13:47:49.659Z,35.94
2023-03-11T13:52:54.125Z,34.82
2023-03-11T13:57:57.591Z,34.90
2023-03-11T14:03:03.867Z,35.02
2023-03-11T14:08:27.463Z,33.99
2023-03-11T14:13:31.358Z,34.43
2023-03-11T14:18:37.134Z,35.18
2023-03-11T14:23:44.919Z,34.78
2023-03-11T14:28:50.535Z,35.06
2023-03-11T14:34:15.436Z,34.03
2023-03-11T14:39:25.991Z,35.94
2023-03-11T14:44:29.662Z,35.43
2023-03-11T14:49:31.630Z,35.68
2023-03-11T14:54:36.124Z,34.92
2023-03-11T14:59:39.348Z,35.10
2023-03-11T15:04:44.343Z,35.12
2023-03-11T15:09:46.831Z,35.32
2023-03-11T15:14:51.506Z,34.83
2023-03-11T15:19:53.217Z,35.44
2023-03-11T15:24:59.788Z,36.50
2023-03-11T15:30:04.933Z,35.96
2023-03-11T15:35:10.820Z,35.50
2023-03-11T15:40:26.107Z,34.69
2023-03-11T15:45:31.811Z,35.74
2023-03-11T15:50:50.479Z,34.95
2023-03-11T15:56:03.868Z,36.39
2023-03-11T16:01:09.870Z,35.07
2023-03-11T16:06:11.565Z,35.39
2023-03-11T16:11:13.412Z,35.45
2023-03-11T16:16:17.384Z,35.50
2023-03-11T16:21:21.406Z,36.69
2023-03-11T16:26:23.235Z,35.82
2023-03-11T16:31:25.222Z,36.54
2023-03-11T16:36:27.096Z,35.91
2023-03-11T16:41:28.773Z,37.48
2023-03-11T16:46:30.466Z,37.65
2023-03-11T16:51:33.062Z,37.51
2023-03-11T16:56:35.719Z,37.96
2023-03-11T17:01:38.621Z,38.89
2023-03-11T17:06:40.367Z,38.32
2023-03-11T17:11:42.922Z,38.83
2023-03-11T17:16:45.566Z,39.61
2023-03-11T17:21:47.309Z,39.84
2023-03-11T17:26:48.926Z,40.38
2023-03-11T17:31:50.648Z,40.12
2023-03-11T17:36:52.488Z,41.60
2023-03-11T17:41:54.110Z,43.00
2023-03-11T17:46:55.787Z,43.00
2023-03-11T17:51:57.502Z,43.38
2023-03-11T17:56:59.100Z,43.89
2023-03-11T18:02:00.875Z,44.77
2023-03-11T18:07:03.480Z,45.13
2023-03-11T18:12:06.753Z,46.13
2023-03-11T18:17:08.533Z,46.76
2023-03-11T18:22:10.244Z,47.29
2023-03-11T18:27:12.897Z,47.58
2023-03-11T18:32:14.588Z,47.49
2023-03-11T18:37:16.293Z,47.78
2023-03-11T18:42:17.982Z,48.32
2023-03-11T18:47:19.597Z,48.67
2023-03-11T18:52:21.381Z,49.21
2023-03-11T18:57:23.179Z,49.22
2023-03-11T19:02:26.166Z,49.83
2023-03-11T19:07:30.785Z,49.82
2023-03-11T19:12:34.510Z,50.46
2023-03-11T19:17:36.251Z,50.67
2023-03-11T19:22:38.261Z,51.24
2023-03-11T19:27:40.302Z,51.39
2023-03-11T19:32:41.962Z,52.46
2023-03-11T19:37:43.584Z,52.03
2023-03-11T19:42:45.249Z,52.20
2023-03-11T19:47:50.718Z,52.41
2023-03-11T19:52:52.500Z,52.76
2023-03-11T19:57:55.003Z,52.94
2023-03-11T20:02:56.905Z,53.24
2023-03-11T20:07:58.674Z,53.37
2023-03-11T20:13:02.934Z,53.64
2023-03-11T20:18:06.281Z,54.01
2023-03-11T20:23:07.995Z,54.25
2023-03-11T20:28:09.884Z,54.72
2023-03-11T20:33:11.564Z,54.41
2023-03-11T20:38:13.327Z,54.58
2023-03-11T20:43:14.943Z,55.10
2023-03-11T20:48:16.677Z,55.27
2023-03-11T20:53:18.324Z,55.37
2023-03-11T20:58:19.987Z,55.88
2023-03-11T21:03:21.953Z,55.81
2023-03-11T21:08:23.775Z,55.67
2023-03-11T21:13:25.450Z,55.72
2023-03-11T21:18:27.182Z,56.03
2023-03-11T21:23:28.920Z,56.46
2023-03-11T21:28:31.518Z,56.29
2023-03-11T21:33:33.444Z,56.52
2023-03-11T21:38:35.683Z,56.86
2023-03-11T21:43:38.957Z,57.08
2023-03-11T21:48:40.682Z,57.22
2023-03-11T21:53:42.853Z,57.00
2023-03-11T21:58:44.692Z,57.48
2023-03-11T22:03:47.475Z,57.87
2023-03-11T22:08:49.349Z,57.84
2023-03-11T22:13:54.157Z,58.09
2023-03-11T22:18:55.981Z,58.14
2023-03-11T22:23:57.676Z,58.17
2023-03-11T22:28:59.313Z,58.38
2023-03-11T22:34:00.911Z,58.10
2023-03-11T22:39:04.412Z,58.40
2023-03-11T22:44:06.153Z,58.30
2023-03-11T22:49:07.793Z,58.20
2023-03-11T22:54:09.501Z,58.17
2023-03-11T22:59:11.147Z,58.21
2023-03-11T23:04:12.842Z,58.72
2023-03-11T23:09:14.877Z,58.91
2023-03-11T23:14:16.809Z,58.77
2023-03-11T23:19:18.467Z,58.78
2023-03-11T23:24:20.093Z,58.57
2023-03-11T23:29:21.790Z,58.95
2023-03-11T23:34:23.461Z,58.83
2023-03-11T23:39:25.085Z,58.59
2023-03-11T23:44:27.076Z,58.79
2023-03-11T23:49:28.796Z,58.94
2023-03-11T23:54:30.463Z,58.89
2023-03-11T23:59:32.194Z,58.93
